createdAt,value
2022-07-30T00:00:28.634Z,22.40
2022-07-30T00:02:56.602Z,22.50
2022-07-30T00:05:24.537Z,22.20
2022-07-30T00:07:52.592Z,22.30
2022-07-30T00:10:22.974Z,22.30
2022-07-30T00:12:50.931Z,22.20
2022-07-30T00:15:20.212Z,22.20
2022-07-30T00:17:49.245Z,22.20
2022-07-30T00:20:17.523Z,22.10
2022-07-30T00:22:47.029Z,22.10
2022-07-30T00:25:14.915Z,22.00
2022-07-30T00:27:43.199Z,22.00
2022-07-30T00:30:12.077Z,21.90
2022-07-30T00:32:41.543Z,21.90
2022-07-30T00:35:10.447Z,21.80
2022-07-30T00:37:38.289Z,21.70
2022-07-30T00:40:07.881Z,21.70
2022-07-30T00:42:40.252Z,21.70
2022-07-30T00:45:09.775Z,21.60
2022-07-30T00:50:09.574Z,21.70
2022-07-30T00:52:38.964Z,21.60
2022-07-30T00:55:09.206Z,21.60
2022-07-30T00:57:37.697Z,21.60
2022-07-30T01:00:09.836Z,21.60
2022-07-30T01:02:38.011Z,21.50
2022-07-30T01:05:08.589Z,21.50
2022-07-30T01:07:36.658Z,21.50
2022-07-30T01:10:05.864Z,21.50
2022-07-30T01:12:34.227Z,21.40
2022-07-30T01:15:06.172Z,21.50
2022-07-30T01:17:35.024Z,21.40
2022-07-30T01:20:06.134Z,21.30
2022-07-30T01:22:45.171Z,21.40
2022-07-30T01:25:18.314Z,21.30
2022-07-30T01:27:51.167Z,21.20
2022-07-30T01:30:23.558Z,21.20
2022-07-30T01:32:54.687Z,21.20
2022-07-30T01:35:25.468Z,21.10
2022-07-30T01:37:55.270Z,21.20
2022-07-30T01:40:25.281Z,22.50
2022-07-30T01:42:57.686Z,21.20
2022-07-30T01:45:27.548Z,21.20
2022-07-30T01:47:56.860Z,21.20
2022-07-30T01:50:24.951Z,21.10
2022-07-30T01:52:55.064Z,21.10
2022-07-30T01:55:26.274Z,21.00
2022-07-30T01:57:57.440Z,21.00
2022-07-30T02:00:27.408Z,21.00
2022-07-30T02:02:55.327Z,20.90
2022-07-30T02:05:23.954Z,20.90
2022-07-30T02:07:57.458Z,20.90
2022-07-30T02:10:32.066Z,20.80
2022-07-30T02:13:02.399Z,20.80
2022-07-30T02:15:35.013Z,22.20
2022-07-30T02:18:07.997Z,20.80
2022-07-30T02:20:39.215Z,20.70
2022-07-30T02:23:11.377Z,20.60
2022-07-30T02:25:45.552Z,20.60
2022-07-30T02:28:16.689Z,22.10
2022-07-30T02:30:49.333Z,20.50
2022-07-30T02:33:20.140Z,20.50
2022-07-30T02:35:49.646Z,20.60
2022-07-30T02:38:20.647Z,20.60
2022-07-30T02:40:50.023Z,21.80
2022-07-30T02:43:20.878Z,20.60
2022-07-30T02:45:49.583Z,21.60
2022-07-30T02:48:28.355Z,20.50
2022-07-30T02:51:05.397Z,20.50
2022-07-30T02:53:34.524Z,20.50
2022-07-30T02:56:03.994Z,20.50
2022-07-30T02:58:34.063Z,22.40
2022-07-30T03:01:03.481Z,20.40
2022-07-30T03:03:32.322Z,20.50
2022-07-30T03:06:02.280Z,20.40
2022-07-30T03:08:32.724Z,20.40
2022-07-30T03:11:01.506Z,20.30
2022-07-30T03:13:29.467Z,20.30
2022-07-30T03:15:59.917Z,20.30
2022-07-30T03:18:33.969Z,20.20
2022-07-30T03:21:03.536Z,20.20
2022-07-30T03:23:37.065Z,20.10
2022-07-30T03:26:08.444Z,20.10
2022-07-30T03:28:40.836Z,20.10
2022-07-30T03:31:11.898Z,20.10
2022-07-30T03:33:40.770Z,20.10
2022-07-30T03:36:09.878Z,20.10
2022-07-30T03:38:38.570Z,20.10
2022-07-30T03:41:07.402Z,23.50
2022-07-30T03:43:35.808Z,20.00
2022-07-30T03:46:05.303Z,20.00
2022-07-30T03:48:35.642Z,20.00
2022-07-30T03:51:04.938Z,19.90
2022-07-30T03:53:33.781Z,19.90
2022-07-30T03:56:02.127Z,19.90
2022-07-30T03:58:32.150Z,19.90
2022-07-30T04:01:04.265Z,19.80
2022-07-30T04:03:34.602Z,22.40
2022-07-30T04:06:02.823Z,19.80
2022-07-30T04:08:30.792Z,19.80
2022-07-30T04:11:00.017Z,19.80
2022-07-30T04:13:27.872Z,19.80
2022-07-30T04:16:37.361Z,19.70
2022-07-30T04:18:55.803Z,19.70
2022-07-30T04:21:25.838Z,19.60
2022-07-30T04:24:02.334Z,22.40
2022-07-30T04:26:34.718Z,19.60
2022-07-30T04:29:05.064Z,19.60
2022-07-30T04:31:40.734Z,19.60
2022-07-30T04:34:14.981Z,19.60
2022-07-30T04:36:44.267Z,19.60
2022-07-30T04:39:12.904Z,19.60
2022-07-30T04:41:48.081Z,19.60
2022-07-30T04:44:18.306Z,19.60
2022-07-30T04:46:46.606Z,19.60
2022-07-30T04:49:18.497Z,19.50
2022-07-30T04:51:47.487Z,19.50
2022-07-30T04:54:16.722Z,19.50
2022-07-30T04:56:52.464Z,19.50
2022-07-30T04:59:25.939Z,19.50
2022-07-30T05:01:57.124Z,19.50
2022-07-30T05:04:29.024Z,19.50
2022-07-30T05:06:59.273Z,19.50
2022-07-30T05:09:27.951Z,19.50
2022-07-30T05:11:57.623Z,19.50
2022-07-30T05:14:26.526Z,19.50
2022-07-30T05:16:55.107Z,20.30
2022-07-30T05:19:23.627Z,19.50
2022-07-30T05:21:53.183Z,19.50
2022-07-30T05:24:21.943Z,19.50
2022-07-30T05:26:49.884Z,19.60
2022-07-30T05:29:20.034Z,19.60
2022-07-30T05:31:48.959Z,18.20
2022-07-30T05:34:17.121Z,19.70
2022-07-30T05:36:45.514Z,19.80
2022-07-30T05:39:16.241Z,22.10
2022-07-30T05:41:44.224Z,19.90
2022-07-30T05:44:12.213Z,19.90
2022-07-30T05:46:40.147Z,19.90
2022-07-30T05:49:08.329Z,20.00
2022-07-30T05:51:36.243Z,20.00
2022-07-30T05:54:04.283Z,20.00
2022-07-30T05:56:33.489Z,20.10
2022-07-30T05:59:01.506Z,20.20
2022-07-30T06:01:29.544Z,20.20
2022-07-30T06:03:57.642Z,20.30
2022-07-30T06:06:25.678Z,20.30
2022-07-30T06:08:53.610Z,20.40
2022-07-30T06:11:21.429Z,20.50
2022-07-30T06:13:50.643Z,20.50
2022-07-30T06:16:18.558Z,20.60
2022-07-30T06:18:46.471Z,20.60
2022-07-30T06:21:14.655Z,20.70
2022-07-30T06:23:42.563Z,20.70
2022-07-30T06:26:10.823Z,20.80
2022-07-30T06:28:39.411Z,22.40
2022-07-30T06:31:09.128Z,21.00
2022-07-30T06:33:37.209Z,21.70
2022-07-30T06:36:05.434Z,21.20
2022-07-30T06:38:33.239Z,21.20
2022-07-30T06:41:04.455Z,21.30
2022-07-30T06:43:32.704Z,21.40
2022-07-30T06:46:02.411Z,24.30
2022-07-30T06:48:32.775Z,21.60
2022-07-30T06:51:00.807Z,24.60
2022-07-30T06:53:28.833Z,21.70
2022-07-30T06:55:58.433Z,21.80
2022-07-30T06:58:28.553Z,24.40
2022-07-30T07:00:56.425Z,21.90
2022-07-30T07:03:26.160Z,21.90
2022-07-30T07:06:09.075Z,22.00
2022-07-30T07:08:37.680Z,25.50
2022-07-30T07:11:05.565Z,22.00
2022-07-30T07:13:33.395Z,24.30
2022-07-30T07:16:01.377Z,25.00
2022-07-30T07:18:29.304Z,22.50
2022-07-30T07:20:57.449Z,22.40
2022-07-30T07:23:40.534Z,22.50
2022-07-30T07:26:11.118Z,22.60
2022-07-30T07:28:40.227Z,22.60
2022-07-30T07:31:08.441Z,22.70
2022-07-30T07:33:36.495Z,22.80
2022-07-30T07:36:04.650Z,22.80
2022-07-30T07:38:34.325Z,22.90
2022-07-30T07:41:02.493Z,22.90
2022-07-30T07:43:30.371Z,26.20
2022-07-30T07:45:59.060Z,23.00
2022-07-30T07:48:26.936Z,23.00
2022-07-30T07:50:59.667Z,23.10
2022-07-30T07:53:28.343Z,23.10
2022-07-30T07:55:57.668Z,23.20
2022-07-30T07:58:26.427Z,23.30
2022-07-30T08:00:55.330Z,23.30
2022-07-30T08:03:23.516Z,23.30
2022-07-30T08:06:01.108Z,23.40
2022-07-30T08:08:36.467Z,23.50
2022-07-30T08:11:07.298Z,25.40
2022-07-30T08:13:51.703Z,23.60
2022-07-30T08:16:21.090Z,23.70
2022-07-30T08:18:49.106Z,23.70
2022-07-30T08:21:18.451Z,23.90
2022-07-30T08:23:46.480Z,24.10
2022-07-30T08:26:16.042Z,24.00
2022-07-30T08:28:45.586Z,23.90
2022-07-30T08:31:13.946Z,23.90
2022-07-30T08:33:41.855Z,24.00
2022-07-30T08:36:10.321Z,24.10
2022-07-30T08:38:39.101Z,25.20
2022-07-30T08:41:07.508Z,26.10
2022-07-30T08:43:37.397Z,24.40
2022-07-30T08:46:08.939Z,24.40
2022-07-30T08:48:37.505Z,24.50
2022-07-30T08:51:05.497Z,25.10
2022-07-30T08:53:35.055Z,24.60
2022-07-30T08:56:04.036Z,27.10
2022-07-30T08:58:33.942Z,27.10
2022-07-30T09:01:05.173Z,26.60
2022-07-30T09:03:33.698Z,24.90
2022-07-30T09:06:02.729Z,25.00
2022-07-30T09:08:30.999Z,25.00
2022-07-30T09:10:59.240Z,27.40
2022-07-30T09:13:28.740Z,25.20
2022-07-30T09:15:57.766Z,26.10
2022-07-30T09:18:32.135Z,26.60
2022-07-30T09:21:01.826Z,25.40
2022-07-30T09:23:30.067Z,25.40
2022-07-30T09:26:00.852Z,26.70
2022-07-30T09:28:31.173Z,25.60
2022-07-30T09:30:59.924Z,25.70
2022-07-30T09:33:37.797Z,25.60
2022-07-30T09:36:07.402Z,25.60
2022-07-30T09:38:47.651Z,25.70
2022-07-30T09:41:37.630Z,28.70
2022-07-30T09:44:06.247Z,25.90
2022-07-30T09:46:45.307Z,26.00
2022-07-30T09:49:19.513Z,28.30
2022-07-30T09:52:06.738Z,26.10
2022-07-30T09:54:51.597Z,26.10
2022-07-30T09:57:26.266Z,26.30
2022-07-30T09:59:56.843Z,26.30
2022-07-30T10:02:31.922Z,28.00
2022-07-30T10:05:14.443Z,28.00
2022-07-30T10:07:53.223Z,26.50
2022-07-30T10:10:25.538Z,26.60
2022-07-30T10:12:57.940Z,26.70
2022-07-30T10:15:29.526Z,27.30
2022-07-30T10:17:58.055Z,26.80
2022-07-30T10:20:29.006Z,26.90
2022-07-30T10:22:58.141Z,26.90
2022-07-30T10:25:27.993Z,27.00
2022-07-30T10:27:58.380Z,27.00
2022-07-30T10:30:29.269Z,27.10
2022-07-30T10:32:59.816Z,27.20
2022-07-30T10:35:34.852Z,27.30
2022-07-30T10:38:13.910Z,27.30
2022-07-30T10:40:49.430Z,29.00
2022-07-30T10:43:48.379Z,27.50
2022-07-30T10:46:27.315Z,27.60
2022-07-30T10:48:57.542Z,27.70
2022-07-30T10:51:46.621Z,27.80
2022-07-30T10:54:39.493Z,27.90
2022-07-30T10:57:15.001Z,28.00
2022-07-30T11:00:15.415Z,28.20
2022-07-30T11:03:16.010Z,28.10
2022-07-30T11:05:45.877Z,28.20
2022-07-30T11:08:36.149Z,28.30
2022-07-30T11:11:19.903Z,28.30
2022-07-30T11:13:54.137Z,30.90
2022-07-30T11:16:24.423Z,28.40
2022-07-30T11:22:25.022Z,28.50
2022-07-30T11:24:54.413Z,28.50
2022-07-30T11:27:45.985Z,28.50
2022-07-30T11:30:36.038Z,29.30
2022-07-30T11:33:33.195Z,28.70
2022-07-30T11:36:12.128Z,28.80
2022-07-30T11:38:54.106Z,28.90
2022-07-30T11:41:24.168Z,29.00
2022-07-30T11:44:25.571Z,29.10
2022-07-30T11:46:53.979Z,29.20
2022-07-30T11:49:21.902Z,29.30
2022-07-30T11:51:52.311Z,29.40
2022-07-30T11:54:20.254Z,29.50
2022-07-30T11:56:53.872Z,29.60
2022-07-30T11:59:21.957Z,29.80
2022-07-30T12:01:56.813Z,29.90
2022-07-30T12:04:25.440Z,30.00
2022-07-30T12:06:53.829Z,30.10
2022-07-30T12:09:28.719Z,30.20
2022-07-30T12:12:00.854Z,31.30
2022-07-30T12:14:38.648Z,30.40
2022-07-30T12:17:06.544Z,30.50
2022-07-30T12:19:47.753Z,30.60
2022-07-30T12:22:16.395Z,30.80
2022-07-30T12:24:44.379Z,30.90
2022-07-30T12:27:14.304Z,33.20
2022-07-30T12:29:42.465Z,31.00
2022-07-30T12:32:11.168Z,31.00
2022-07-30T12:34:39.050Z,32.40
2022-07-30T12:37:10.780Z,30.90
2022-07-30T12:39:40.489Z,30.90
2022-07-30T12:42:08.700Z,30.90
2022-07-30T12:44:40.311Z,33.50
2022-07-30T12:47:20.508Z,30.90
2022-07-30T12:49:50.092Z,30.90
2022-07-30T12:52:28.199Z,31.00
2022-07-30T12:55:06.011Z,32.00
2022-07-30T12:57:52.956Z,30.90
2022-07-30T13:00:22.657Z,30.80
2022-07-30T13:02:50.710Z,30.90
2022-07-30T13:05:18.801Z,31.00
2022-07-30T13:08:04.839Z,31.00
2022-07-30T13:10:32.911Z,31.10
2022-07-30T13:13:02.524Z,31.10
2022-07-30T13:15:31.912Z,31.20
2022-07-30T13:18:00.041Z,31.20
2022-07-30T13:20:27.976Z,31.20
2022-07-30T13:23:00.137Z,34.00
2022-07-30T13:25:39.004Z,31.10
2022-07-30T13:28:08.639Z,31.10
2022-07-30T13:30:38.046Z,31.20
2022-07-30T13:33:06.197Z,31.20
2022-07-30T13:35:34.141Z,31.20
2022-07-30T13:38:02.711Z,31.20
2022-07-30T13:40:32.124Z,31.20
2022-07-30T13:43:00.144Z,31.30
2022-07-30T13:45:28.496Z,31.40
2022-07-30T13:47:58.052Z,31.40
2022-07-30T13:50:26.074Z,31.40
2022-07-30T13:52:55.289Z,32.20
2022-07-30T13:55:26.095Z,31.60
2022-07-30T13:57:54.067Z,31.70
2022-07-30T14:00:22.876Z,31.70
2022-07-30T14:02:51.116Z,31.80
2022-07-30T14:05:20.279Z,31.80
2022-07-30T14:07:48.195Z,31.80
2022-07-30T14:10:17.645Z,34.00
2022-07-30T14:12:45.777Z,31.90
2022-07-30T14:15:17.950Z,32.00
2022-07-30T14:17:56.150Z,32.10
2022-07-30T14:20:29.820Z,32.10
2022-07-30T14:22:57.881Z,32.10
2022-07-30T14:25:26.023Z,32.10
2022-07-30T14:27:54.004Z,34.50
2022-07-30T14:30:23.832Z,33.20
2022-07-30T14:32:58.280Z,34.60
2022-07-30T14:35:32.671Z,32.40
2022-07-30T14:38:00.839Z,32.10
2022-07-30T14:40:28.767Z,32.10
2022-07-30T14:42:56.672Z,32.10
2022-07-30T14:45:26.017Z,32.10
2022-07-30T14:47:57.083Z,32.10
2022-07-30T14:50:25.195Z,32.50
2022-07-30T14:52:57.459Z,33.10
2022-07-30T14:55:25.448Z,32.00
2022-07-30T14:57:53.593Z,31.90
2022-07-30T15:00:21.551Z,31.90
2022-07-30T15:02:52.977Z,31.80
2022-07-30T15:05:21.040Z,31.70
2022-07-30T15:07:49.086Z,31.60
2022-07-30T15:10:19.053Z,33.70
2022-07-30T15:12:47.051Z,31.50
2022-07-30T15:15:16.197Z,31.50
2022-07-30T15:17:44.140Z,31.70
2022-07-30T15:20:13.140Z,34.00
2022-07-30T15:22:41.036Z,31.70
2022-07-30T15:25:09.765Z,31.90
2022-07-30T15:27:39.192Z,32.00
2022-07-30T15:30:07.919Z,32.10
2022-07-30T15:32:35.814Z,32.30
2022-07-30T15:35:03.756Z,32.30
2022-07-30T15:37:31.611Z,32.50
2022-07-30T15:39:59.468Z,32.50
2022-07-30T15:42:28.664Z,32.70
2022-07-30T15:45:15.924Z,32.80
2022-07-30T15:47:44.844Z,32.90
2022-07-30T15:50:13.298Z,33.10
2022-07-30T15:52:42.425Z,33.90
2022-07-30T15:55:11.342Z,33.40
2022-07-30T15:57:40.552Z,33.40
2022-07-30T16:00:11.330Z,34.30
2022-07-30T16:02:39.556Z,33.60
2022-07-30T16:05:13.439Z,33.80
2022-07-30T16:07:42.101Z,34.00
2022-07-30T16:10:10.966Z,34.20
2022-07-30T16:12:39.533Z,34.30
2022-07-30T16:15:10.187Z,34.50
2022-07-30T16:17:38.190Z,34.50
2022-07-30T16:20:07.036Z,34.40
2022-07-30T16:22:34.983Z,34.40
2022-07-30T16:25:02.988Z,34.20
2022-07-30T16:27:30.870Z,34.00
2022-07-30T16:29:58.818Z,33.90
2022-07-30T16:32:34.868Z,33.70
2022-07-30T16:35:03.047Z,33.60
2022-07-30T16:37:30.948Z,33.40
2022-07-30T16:39:58.916Z,33.30
2022-07-30T16:42:32.870Z,33.20
2022-07-30T16:45:00.916Z,33.00
2022-07-30T16:47:33.801Z,32.90
2022-07-30T16:50:02.550Z,32.80
2022-07-30T16:52:30.737Z,32.70
2022-07-30T16:55:01.631Z,32.60
2022-07-30T16:57:29.550Z,32.40
2022-07-30T16:59:57.714Z,32.20
2022-07-30T17:02:25.597Z,32.10
2022-07-30T17:04:54.961Z,33.70
2022-07-30T17:07:22.916Z,31.90
2022-07-30T17:09:54.167Z,31.90
2022-07-30T17:12:23.943Z,31.80
2022-07-30T17:14:55.031Z,31.70
2022-07-30T17:17:23.300Z,31.70
2022-07-30T17:19:51.302Z,34.00
2022-07-30T17:22:20.859Z,31.60
2022-07-30T17:24:48.705Z,31.50
2022-07-30T17:27:17.076Z,31.40
2022-07-30T17:29:50.378Z,31.30
2022-07-30T17:32:19.180Z,31.30
2022-07-30T17:34:47.120Z,31.20
2022-07-30T17:37:15.285Z,33.30
2022-07-30T17:40:26.947Z,30.90
2022-07-30T17:42:32.546Z,30.80
2022-07-30T17:45:01.798Z,33.10
2022-07-30T17:47:29.775Z,30.60
2022-07-30T17:49:57.659Z,30.60
2022-07-30T17:52:26.828Z,30.60
2022-07-30T17:54:56.723Z,30.50
2022-07-30T17:57:24.555Z,30.60
2022-07-30T17:59:52.385Z,30.40
2022-07-30T18:02:20.680Z,30.40
2022-07-30T18:04:56.541Z,30.30
2022-07-30T18:07:24.758Z,30.20
2022-07-30T18:09:52.946Z,30.10
2022-07-30T18:12:22.372Z,30.10
2022-07-30T18:14:53.309Z,30.00
2022-07-30T18:17:21.225Z,30.60
2022-07-30T18:19:49.156Z,30.70
2022-07-30T18:22:22.256Z,29.70
2022-07-30T18:25:00.133Z,29.70
2022-07-30T18:27:29.825Z,29.60
2022-07-30T18:29:58.180Z,29.60
2022-07-30T18:32:26.210Z,29.60
2022-07-30T18:34:54.205Z,29.50
2022-07-30T18:37:22.228Z,29.50
2022-07-30T18:39:50.150Z,29.50
2022-07-30T18:42:18.051Z,31.10
2022-07-30T18:44:47.266Z,30.00
2022-07-30T18:47:15.131Z,29.20
2022-07-30T18:49:43.029Z,29.20
2022-07-30T18:52:11.255Z,29.10
2022-07-30T18:54:39.475Z,29.00
2022-07-30T18:57:12.582Z,29.10
2022-07-30T18:59:42.765Z,28.70
2022-07-30T19:02:11.958Z,28.50
2022-07-30T19:04:39.878Z,28.50
2022-07-30T19:07:08.236Z,28.50
2022-07-30T19:09:36.153Z,28.50
2022-07-30T19:12:07.404Z,31.20
2022-07-30T19:14:35.384Z,28.50
2022-07-30T19:17:03.301Z,28.50
2022-07-30T19:19:43.092Z,28.40
2022-07-30T19:22:11.184Z,28.40
2022-07-30T19:24:40.826Z,28.30
2022-07-30T19:27:13.958Z,30.40
2022-07-30T19:29:43.012Z,28.20
2022-07-30T19:32:10.855Z,28.10
2022-07-30T19:34:39.555Z,27.90
2022-07-30T19:37:08.748Z,27.90
2022-07-30T19:39:58.638Z,27.80
2022-07-30T19:42:30.623Z,27.80
2022-07-30T19:44:58.706Z,27.80
2022-07-30T19:47:29.480Z,27.80
2022-07-30T19:50:09.951Z,27.70
2022-07-30T19:52:39.658Z,27.70
2022-07-30T19:55:17.035Z,27.70
2022-07-30T19:57:57.095Z,27.70
2022-07-30T20:00:25.548Z,28.60
2022-07-30T20:02:53.615Z,27.60
2022-07-30T20:05:24.688Z,28.80
2022-07-30T20:07:54.335Z,27.50
2022-07-30T20:10:24.120Z,27.90
2022-07-30T20:12:51.934Z,27.40
2022-07-30T20:15:20.360Z,28.60
2022-07-30T20:17:48.231Z,27.30
2022-07-30T20:20:17.895Z,27.20
2022-07-30T20:22:55.499Z,27.20
2022-07-30T20:25:23.520Z,27.10
2022-07-30T20:27:51.594Z,27.10
2022-07-30T20:30:25.349Z,27.10
2022-07-30T20:33:07.333Z,27.00
2022-07-30T20:35:35.208Z,26.90
2022-07-30T20:38:10.168Z,29.30
2022-07-30T20:40:38.936Z,26.90
2022-07-30T20:43:07.616Z,26.80
2022-07-30T20:45:40.386Z,26.80
2022-07-30T20:48:16.902Z,29.40
2022-07-30T20:50:46.004Z,30.00
2022-07-30T20:53:19.772Z,29.70
2022-07-30T20:55:48.659Z,26.60
2022-07-30T20:58:17.642Z,29.60
2022-07-30T21:00:49.985Z,29.20
2022-07-30T21:03:21.459Z,26.70
2022-07-30T21:05:52.337Z,26.70
2022-07-30T21:11:13.366Z,27.50
2022-07-30T21:13:42.590Z,26.70
2022-07-30T21:16:16.232Z,26.70
2022-07-30T21:18:58.544Z,26.70
2022-07-30T21:21:29.094Z,26.70
2022-07-30T21:24:02.823Z,26.70
2022-07-30T21:26:31.994Z,26.60
2022-07-30T21:29:05.560Z,26.60
2022-07-30T21:31:57.753Z,26.60
2022-07-30T21:34:26.147Z,26.50
2022-07-30T21:36:57.694Z,28.40
2022-07-30T21:39:28.986Z,28.80
2022-07-30T21:41:58.455Z,26.50
2022-07-30T21:44:26.324Z,29.50
2022-07-30T21:46:55.492Z,26.50
2022-07-30T21:49:24.099Z,26.50
2022-07-30T21:51:51.911Z,28.20
2022-07-30T21:54:28.878Z,26.50
2022-07-30T21:56:59.038Z,26.50
2022-07-30T21:59:27.660Z,26.50
2022-07-30T22:01:55.814Z,26.50
2022-07-30T22:04:23.947Z,26.50
2022-07-30T22:06:54.420Z,26.40
2022-07-30T22:09:33.906Z,26.40
2022-07-30T22:12:09.376Z,29.50
2022-07-30T22:14:39.665Z,26.40
2022-07-30T22:17:22.399Z,28.80
2022-07-30T22:19:51.454Z,26.60
2022-07-30T22:22:27.450Z,26.20
2022-07-30T22:24:58.139Z,26.30
2022-07-30T22:27:39.934Z,26.30
2022-07-30T22:30:09.852Z,27.20
2022-07-30T22:32:37.811Z,26.40
2022-07-30T22:35:07.711Z,26.40
2022-07-30T22:37:37.742Z,26.30
2022-07-30T22:40:07.816Z,26.40
2022-07-30T22:42:49.730Z,26.30
2022-07-30T22:45:22.981Z,26.60
2022-07-30T22:48:10.276Z,26.30
2022-07-30T22:50:40.174Z,26.30
2022-07-30T22:54:02.719Z,27.30
2022-07-30T22:55:58.571Z,28.90
2022-07-30T22:58:28.723Z,28.30
2022-07-30T23:00:57.653Z,26.30
2022-07-30T23:03:25.649Z,26.90
2022-07-30T23:05:55.245Z,27.40
2022-07-30T23:08:30.071Z,26.20
2022-07-30T23:10:59.505Z,26.20
2022-07-30T23:12:32.423Z,26.70
2022-07-30T23:13:29.574Z,26.20
2022-07-30T23:15:57.527Z,26.70
2022-07-30T23:18:25.835Z,26.10
2022-07-30T23:20:57.211Z,26.00
2022-07-30T23:23:28.112Z,25.90
2022-07-30T23:26:01.208Z,25.90
2022-07-30T23:28:30.403Z,25.80
2022-07-30T23:30:59.112Z,25.70
2022-07-30T23:33:27.252Z,26.50
2022-07-30T23:35:55.257Z,25.70
2022-07-30T23:38:23.216Z,25.40
2022-07-30T23:40:50.999Z,25.40
2022-07-30T23:43:18.781Z,25.40
2022-07-30T23:45:47.983Z,28.10
2022-07-30T23:48:16.000Z,25.40
2022-07-30T23:50:44.731Z,25.40
2022-07-30T23:53:12.625Z,25.40
2022-07-30T23:55:40.473Z,26.20
2022-07-30T23:58:09.477Z,28.60
